createdAt,value
2017-07-03T00:00:48.861Z,61.69
2017-07-03T00:01:48.570Z,61.3
2017-07-03T00:02:48.915Z,61.3
2017-07-03T00:03:48.948Z,61.5
2017-07-03T00:04:48.977Z,61.21
2017-07-03T00:05:48.689Z,61.4
2017-07-03T00:06:49.025Z,61.3
2017-07-03T00:07:49.056Z,61.4
2017-07-03T00:08:49.080Z,61.69
2017-07-03T00:09:48.800Z,61.4
2017-07-03T00:10:49.146Z,61.3
2017-07-03T00:11:49.162Z,61.6
2017-07-03T00:12:49.199Z,61.4
2017-07-03T00:13:49.220Z,61.21
2017-07-03T00:14:49.260Z,61.21
2017-07-03T00:15:49.277Z,61.3
2017-07-03T00:16:49.303Z,61.69
2017-07-03T00:17:49.340Z,61.5
2017-07-03T00:18:49.361Z,61.3
2017-07-03T00:19:49.390Z,61.4
2017-07-03T00:20:49.418Z,61.6
2017-07-03T00:21:49.445Z,61.3
2017-07-03T00:22:49.471Z,61.5
2017-07-03T00:23:49.499Z,61.21
2017-07-03T00:24:49.217Z,61.21
2017-07-03T00:25:49.553Z,61.4
2017-07-03T00:26:49.582Z,61.5
2017-07-03T00:27:49.614Z,61.21
2017-07-03T00:28:49.640Z,61.69
2017-07-03T00:29:49.356Z,61.6
2017-07-03T00:30:49.385Z,61.4
2017-07-03T00:31:49.731Z,61.3
2017-07-03T00:32:49.443Z,61.21
2017-07-03T00:33:49.771Z,61.4
2017-07-03T00:34:49.809Z,61.6
2017-07-03T00:35:49.833Z,61.4
2017-07-03T00:36:49.547Z,61.5
2017-07-03T00:37:49.890Z,61.69
2017-07-03T00:38:49.911Z,61.4
2017-07-03T00:39:49.945Z,61.69
2017-07-03T00:40:49.973Z,61.21
2017-07-03T00:41:49.998Z,61.4
2017-07-03T00:42:49.707Z,61.21
2017-07-03T00:43:49.735Z,61.3
2017-07-03T00:44:50.080Z,61.3
2017-07-03T00:45:49.797Z,61.21
2017-07-03T00:46:50.133Z,61.6
2017-07-03T00:47:50.155Z,61.11
2017-07-03T00:48:50.231Z,61.3
2017-07-03T00:49:50.219Z,61.21
2017-07-03T00:50:50.253Z,61.69
2017-07-03T00:51:49.959Z,61.11
2017-07-03T00:52:49.993Z,61.69
2017-07-03T00:53:50.012Z,61.11
2017-07-03T00:54:50.344Z,61.4
2017-07-03T00:55:50.385Z,61.3
2017-07-03T00:56:50.409Z,61.21
2017-07-03T00:57:50.446Z,61.4
2017-07-03T00:58:50.148Z,61.11
2017-07-03T00:59:50.749Z,61.3
2017-07-03T01:00:50.520Z,61.6
2017-07-03T01:01:50.550Z,61.6
2017-07-03T01:02:50.577Z,61.3
2017-07-03T01:03:50.604Z,61.02
2017-07-03T01:04:50.568Z,61.6
2017-07-03T01:05:50.664Z,61.69
2017-07-03T01:06:50.684Z,61.6
2017-07-03T01:07:50.711Z,61.3
2017-07-03T01:08:50.739Z,61.6
2017-07-03T01:09:50.760Z,61.4
2017-07-03T01:10:50.793Z,61.5
2017-07-03T01:11:50.825Z,61.5
2017-07-03T01:12:50.854Z,61.5
2017-07-03T01:13:50.879Z,61.6
2017-07-03T01:14:51.159Z,61.4
2017-07-03T01:15:50.945Z,61.6
2017-07-03T01:16:50.655Z,61.4
2017-07-03T01:17:50.991Z,61.21
2017-07-03T01:18:51.022Z,61.3
2017-07-03T01:19:51.352Z,61.6
2017-07-03T01:20:51.069Z,61.3
2017-07-03T01:21:51.105Z,61.6
2017-07-03T01:22:51.130Z,61.11
2017-07-03T01:23:51.155Z,60.72
2017-07-03T01:24:51.440Z,61.3
2017-07-03T01:25:50.893Z,61.11
2017-07-03T01:26:51.276Z,61.21
2017-07-03T01:27:51.277Z,61.3
2017-07-03T01:28:51.289Z,61.3
2017-07-03T01:29:51.011Z,61.4
2017-07-03T01:30:51.352Z,61.69
2017-07-03T01:31:51.373Z,61.02
2017-07-03T01:32:51.414Z,61.02
2017-07-03T01:33:51.427Z,61.5
2017-07-03T01:34:51.459Z,61.69
2017-07-03T01:35:51.488Z,61.4
2017-07-03T01:36:51.512Z,61.5
2017-07-03T01:37:51.541Z,62.08
2017-07-03T01:38:51.569Z,61.4
2017-07-03T01:39:51.597Z,61.3
2017-07-03T01:40:51.623Z,61.3
2017-07-03T01:41:51.657Z,61.3
2017-07-03T01:42:51.683Z,61.3
2017-07-03T01:43:51.395Z,61.5
2017-07-03T01:44:51.740Z,61.5
2017-07-03T01:45:51.764Z,61.6
2017-07-03T01:46:51.792Z,61.4
2017-07-03T01:47:51.816Z,61.69
2017-07-03T01:48:51.839Z,61.69
2017-07-03T01:49:51.876Z,61.5
2017-07-03T01:50:51.588Z,62.08
2017-07-03T01:51:51.920Z,61.98
2017-07-03T01:52:51.638Z,61.4
2017-07-03T01:53:51.983Z,61.89
2017-07-03T01:54:51.999Z,61.98
2017-07-03T01:55:52.036Z,61.3
2017-07-03T01:56:52.073Z,61.21
2017-07-03T01:57:52.089Z,60.92
2017-07-03T01:58:52.124Z,61.3
2017-07-03T01:59:52.156Z,61.3
2017-07-03T02:00:52.176Z,61.6
2017-07-03T02:01:52.198Z,61.4
2017-07-03T02:02:51.922Z,61.6
2017-07-03T02:03:52.259Z,61.3
2017-07-03T02:04:52.295Z,61.5
2017-07-03T02:05:52.004Z,61.5
2017-07-03T02:06:52.349Z,61.69
2017-07-03T02:07:52.371Z,61.5
2017-07-03T02:08:52.391Z,61.21
2017-07-03T02:09:52.428Z,61.21
2017-07-03T02:10:52.460Z,61.4
2017-07-03T02:11:52.478Z,61.21
2017-07-03T02:12:52.511Z,61.5
2017-07-03T02:13:52.535Z,61.6
2017-07-03T02:14:52.568Z,61.5
2017-07-03T02:15:52.592Z,61.6
2017-07-03T02:16:52.629Z,61.3
2017-07-03T02:17:52.342Z,61.21
2017-07-03T02:18:52.674Z,61.79
2017-07-03T02:19:52.707Z,61.27
2017-07-03T02:20:52.740Z,61.69
2017-07-03T02:21:52.761Z,61.6
2017-07-03T02:22:52.789Z,61.57
2017-07-03T02:23:52.497Z,61.47
2017-07-03T02:24:52.839Z,61.37
2017-07-03T02:25:52.864Z,61.57
2017-07-03T02:26:52.580Z,61.27
2017-07-03T02:27:52.609Z,61.08
2017-07-03T02:28:52.946Z,61.27
2017-07-03T02:29:52.983Z,61.76
2017-07-03T02:30:52.696Z,61.6
2017-07-03T02:31:53.037Z,61.47
2017-07-03T02:32:53.059Z,61.57
2017-07-03T02:33:53.086Z,61.57
2017-07-03T02:34:52.808Z,61.57
2017-07-03T02:35:53.143Z,61.47
2017-07-03T02:36:53.169Z,61.37
2017-07-03T02:37:53.203Z,61.37
2017-07-03T02:38:53.223Z,61.47
2017-07-03T02:39:53.255Z,61.86
2017-07-03T02:40:53.284Z,61.76
2017-07-03T02:41:53.312Z,61.47
2017-07-03T02:42:53.022Z,61.27
2017-07-03T02:43:53.099Z,61.37
2017-07-03T02:44:53.399Z,61.57
2017-07-03T02:45:53.424Z,61.76
2017-07-03T02:46:53.453Z,61.47
2017-07-03T02:47:53.474Z,61.47
2017-07-03T02:48:53.498Z,61.47
2017-07-03T02:49:53.216Z,61.86
2017-07-03T02:50:53.555Z,61.27
2017-07-03T02:51:53.588Z,61.47
2017-07-03T02:52:53.299Z,61.47
2017-07-03T02:53:53.318Z,61.27
2017-07-03T02:54:53.667Z,61.37
2017-07-03T02:55:53.691Z,61.66
2017-07-03T02:56:53.408Z,61.37
2017-07-03T02:57:53.437Z,61.37
2017-07-03T02:58:53.780Z,61.37
2017-07-03T02:59:53.807Z,61.57
2017-07-03T03:00:53.836Z,61.66
2017-07-03T03:01:53.858Z,61.37
2017-07-03T03:02:53.893Z,61.37
2017-07-03T03:03:53.972Z,61.57
2017-07-03T03:04:53.944Z,61.66
2017-07-03T03:05:53.915Z,61.08
2017-07-03T03:06:53.688Z,60.92
2017-07-03T03:07:54.024Z,61.76
2017-07-03T03:08:54.050Z,61.27
2017-07-03T03:09:54.083Z,61.37
2017-07-03T03:10:54.095Z,61.37
2017-07-03T03:11:54.145Z,61.37
2017-07-03T03:12:54.166Z,61.47
2017-07-03T03:13:54.182Z,61.4
2017-07-03T03:14:54.235Z,61.47
2017-07-03T03:15:54.548Z,61.5
2017-07-03T03:16:54.303Z,61.47
2017-07-03T03:17:54.304Z,61.5
2017-07-03T03:18:54.325Z,61.47
2017-07-03T03:19:54.350Z,61.37
2017-07-03T03:20:54.636Z,61.4
2017-07-03T03:21:54.416Z,61.4
2017-07-03T03:22:54.441Z,61.4
2017-07-03T03:23:54.466Z,61.47
2017-07-03T03:24:54.501Z,61.6
2017-07-03T03:25:54.772Z,61.4
2017-07-03T03:26:54.543Z,61.5
2017-07-03T03:27:54.577Z,61.5
2017-07-03T03:28:54.601Z,61.5
2017-07-03T03:29:54.635Z,61.37
2017-07-03T03:30:54.648Z,61.69
2017-07-03T03:31:54.687Z,60.92
2017-07-03T03:32:54.708Z,61.69
2017-07-03T03:33:54.426Z,61.6
2017-07-03T03:34:54.459Z,61.5
2017-07-03T03:35:54.774Z,61.6
2017-07-03T03:36:54.512Z,61.37
2017-07-03T03:37:54.852Z,61.6
2017-07-03T03:38:54.881Z,61.4
2017-07-03T03:39:54.906Z,61.21
2017-07-03T03:40:54.874Z,61.5
2017-07-03T03:41:54.961Z,61.4
2017-07-03T03:42:54.989Z,61.89
2017-07-03T03:43:54.704Z,61.3
2017-07-03T03:44:54.730Z,61.79
2017-07-03T03:45:55.322Z,61.5
2017-07-03T03:46:55.100Z,61.3
2017-07-03T03:47:54.812Z,61.3
2017-07-03T03:48:55.158Z,61.89
2017-07-03T03:49:55.174Z,61.3
2017-07-03T03:50:55.506Z,61.3
2017-07-03T03:51:55.237Z,61.79
2017-07-03T03:52:55.269Z,61.79
2017-07-03T03:53:55.292Z,61.5
2017-07-03T03:54:55.317Z,61.5
2017-07-03T03:55:55.343Z,61.21
2017-07-03T03:56:55.375Z,61.5
2017-07-03T03:57:55.409Z,61.4
2017-07-03T03:58:55.432Z,61.5
2017-07-03T03:59:55.458Z,61.5
2017-07-03T04:00:55.483Z,61.4
2017-07-03T04:01:55.516Z,61.4
2017-07-03T04:02:55.545Z,61.4
2017-07-03T04:03:55.569Z,61.89
2017-07-03T04:04:55.595Z,61.3
2017-07-03T04:05:55.626Z,61.3
2017-07-03T04:06:55.652Z,61.5
2017-07-03T04:07:55.673Z,61.6
2017-07-03T04:08:55.709Z,61.3
2017-07-03T04:09:55.733Z,61.4
2017-07-03T04:10:55.754Z,61.4
2017-07-03T04:11:55.791Z,61.5
2017-07-03T04:12:55.816Z,61.21
2017-07-03T04:13:55.842Z,61.21
2017-07-03T04:14:55.866Z,61.21
2017-07-03T04:15:55.901Z,61.5
2017-07-03T04:16:55.619Z,61.11
2017-07-03T04:17:55.952Z,61.21
2017-07-03T04:18:55.985Z,61.21
2017-07-03T04:19:56.012Z,61.3
2017-07-03T04:20:56.035Z,61.6
2017-07-03T04:21:56.059Z,61.3
2017-07-03T04:22:55.780Z,61.3
2017-07-03T04:23:56.117Z,61.3
2017-07-03T04:24:55.833Z,61.4
2017-07-03T04:25:56.178Z,61.02
2017-07-03T04:26:56.200Z,60.92
2017-07-03T04:27:56.235Z,61.4
2017-07-03T04:28:56.253Z,61.5
2017-07-03T04:29:56.282Z,61.5
2017-07-03T04:30:56.301Z,61.02
2017-07-03T04:31:56.023Z,61.3
2017-07-03T04:32:56.061Z,61.21
2017-07-03T04:33:56.401Z,61.3
2017-07-03T04:34:56.423Z,61.5
2017-07-03T04:35:56.451Z,61.3
2017-07-03T04:36:56.476Z,61.21
2017-07-03T04:37:56.500Z,61.3
2017-07-03T04:38:56.540Z,61.11
2017-07-03T04:39:56.558Z,61.4
2017-07-03T04:40:56.274Z,61.5
2017-07-03T04:41:56.623Z,61.02
2017-07-03T04:42:56.324Z,61.3
2017-07-03T04:43:56.672Z,61.4
2017-07-03T04:44:56.694Z,61.02
2017-07-03T04:45:56.731Z,61.4
2017-07-03T04:46:56.758Z,60.92
2017-07-03T04:47:56.470Z,61.3
2017-07-03T04:48:56.500Z,61.21
2017-07-03T04:49:56.834Z,60.82
2017-07-03T04:50:56.867Z,61.11
2017-07-03T04:51:56.883Z,60.92
2017-07-03T04:52:56.927Z,60.72
2017-07-03T04:53:56.942Z,61.4
2017-07-03T04:54:56.662Z,60.82
2017-07-03T04:55:56.686Z,61.02
2017-07-03T04:56:57.282Z,61.11
2017-07-03T04:57:56.740Z,61.02
2017-07-03T04:58:56.769Z,61.02
2017-07-03T04:59:56.794Z,61.4
2017-07-03T05:00:57.141Z,60.92
2017-07-03T05:01:57.414Z,61.11
2017-07-03T05:02:57.191Z,61.11
2017-07-03T05:03:57.221Z,61.02
2017-07-03T05:04:57.249Z,61.11
2017-07-03T05:05:56.969Z,61.21
2017-07-03T05:06:57.554Z,60.92
2017-07-03T05:07:57.322Z,61.11
2017-07-03T05:08:57.352Z,61.02
2017-07-03T05:09:57.385Z,61.02
2017-07-03T05:10:57.148Z,60.92
2017-07-03T05:11:57.687Z,60.72
2017-07-03T05:12:57.476Z,60.92
2017-07-03T05:13:57.492Z,60.82
2017-07-03T05:14:57.523Z,61.69
2017-07-03T05:15:57.554Z,60.63
2017-07-03T05:16:57.882Z,60.72
2017-07-03T05:17:57.616Z,61.02
2017-07-03T05:18:57.633Z,60.53
2017-07-03T05:19:57.665Z,60.92
2017-07-03T05:20:57.691Z,60.34
2017-07-03T05:21:57.660Z,61.02
2017-07-03T05:22:57.748Z,61.21
2017-07-03T05:23:57.778Z,60.92
2017-07-03T05:24:57.802Z,60.82
2017-07-03T05:25:57.834Z,60.92
2017-07-03T05:26:57.844Z,61.02
2017-07-03T05:27:57.571Z,60.82
2017-07-03T05:28:57.600Z,60.82
2017-07-03T05:29:57.941Z,60.82
2017-07-03T05:30:57.965Z,60.82
2017-07-03T05:31:58.254Z,60.72
2017-07-03T05:32:58.021Z,60.82
2017-07-03T05:33:58.054Z,60.53
2017-07-03T05:34:58.081Z,61.02
2017-07-03T05:35:58.094Z,60.92
2017-07-03T05:36:58.442Z,60.72
2017-07-03T05:37:58.164Z,60.72
2017-07-03T05:38:58.184Z,60.72
2017-07-03T05:39:58.217Z,60.82
2017-07-03T05:40:58.250Z,61.02
2017-07-03T05:41:58.275Z,61.5
2017-07-03T05:42:57.989Z,60.72
2017-07-03T05:43:58.036Z,60.92
2017-07-03T05:44:58.044Z,60.82
2017-07-03T05:45:58.382Z,60.53
2017-07-03T05:46:58.095Z,61.11
2017-07-03T05:47:58.124Z,61.21
2017-07-03T05:48:58.460Z,60.82
2017-07-03T05:49:58.494Z,60.92
2017-07-03T05:50:58.527Z,61.02
2017-07-03T05:51:58.539Z,60.92
2017-07-03T05:52:58.579Z,60.82
2017-07-03T05:53:58.602Z,60.82
2017-07-03T05:54:58.308Z,60.85
2017-07-03T05:55:58.661Z,61.02
2017-07-03T05:56:58.690Z,61.02
2017-07-03T05:57:58.411Z,60.82
2017-07-03T05:58:58.745Z,60.72
2017-07-03T05:59:58.772Z,60.82
2017-07-03T06:00:58.479Z,61.15
2017-07-03T06:01:58.830Z,60.72
2017-07-03T06:02:58.549Z,61.02
2017-07-03T06:03:58.887Z,60.92
2017-07-03T06:04:58.907Z,60.95
2017-07-03T06:05:58.942Z,60.95
2017-07-03T06:06:58.962Z,60.57
2017-07-03T06:07:58.996Z,60.95
2017-07-03T06:08:59.017Z,60.47
2017-07-03T06:09:59.049Z,60.57
2017-07-03T06:10:59.083Z,60.57
2017-07-03T06:11:59.111Z,60.75
2017-07-03T06:12:59.136Z,60.66
2017-07-03T06:13:59.173Z,60.85
2017-07-03T06:14:59.188Z,60.08
2017-07-03T06:15:59.218Z,60.75
2017-07-03T06:16:59.247Z,60.17
2017-07-03T06:17:58.968Z,60.17
2017-07-03T06:18:58.997Z,60.27
2017-07-03T06:19:59.323Z,60.17
2017-07-03T06:20:59.350Z,60.37
2017-07-03T06:21:59.071Z,60.27
2017-07-03T06:22:59.411Z,60.08
2017-07-03T06:23:59.432Z,60.37
2017-07-03T06:24:59.464Z,60.17
2017-07-03T06:25:59.198Z,60.27
2017-07-03T06:26:59.219Z,60.47
2017-07-03T06:27:59.241Z,60.17
2017-07-03T06:28:59.578Z,60.37
2017-07-03T06:29:59.600Z,60.27
2017-07-03T06:30:59.639Z,60.27
2017-07-03T06:31:59.663Z,60.47
2017-07-03T06:32:59.383Z,60.37
2017-07-03T06:33:59.715Z,59.98
2017-07-03T06:34:59.745Z,60.37
2017-07-03T06:35:59.774Z,60.47
2017-07-03T06:36:59.802Z,60.37
2017-07-03T06:37:59.520Z,60.37
2017-07-03T06:38:59.852Z,60.17
2017-07-03T06:39:59.568Z,60.57
2017-07-03T06:40:59.923Z,60.27
2017-07-03T06:41:59.946Z,60.08
2017-07-03T06:42:59.975Z,60.37
2017-07-03T06:44:00.000Z,60.17
2017-07-03T06:45:00.032Z,60.27
2017-07-03T06:46:00.053Z,60.08
2017-07-03T06:47:00.074Z,60.37
2017-07-03T06:48:00.112Z,59.98
2017-07-03T06:49:00.130Z,59.89
2017-07-03T06:50:00.153Z,60.37
2017-07-03T06:51:00.190Z,60.27
2017-07-03T06:52:00.219Z,60.27
2017-07-03T06:53:00.247Z,60.17
2017-07-03T06:54:00.276Z,59.98
2017-07-03T06:55:00.300Z,60.27
2017-07-03T06:56:00.018Z,60.27
2017-07-03T06:57:00.363Z,60.27
2017-07-03T06:58:00.391Z,60.47
2017-07-03T06:59:00.423Z,59.98
2017-07-03T07:00:00.129Z,60.27
2017-07-03T07:01:00.470Z,60.08
2017-07-03T07:02:00.504Z,59.89
2017-07-03T07:03:00.526Z,59.98
2017-07-03T07:04:00.555Z,59.79
2017-07-03T07:05:00.576Z,60.37
2017-07-03T07:06:00.605Z,60.17
2017-07-03T07:07:00.630Z,60.08
2017-07-03T07:08:00.667Z,59.79
2017-07-03T07:09:00.691Z,60.17
2017-07-03T07:10:00.724Z,59.69
2017-07-03T07:11:00.753Z,60.08
2017-07-03T07:12:00.467Z,60.08
2017-07-03T07:13:00.798Z,59.59
2017-07-03T07:14:00.832Z,59.69
2017-07-03T07:15:00.864Z,59.79
2017-07-03T07:16:00.885Z,59.69
2017-07-03T07:17:00.613Z,59.69
2017-07-03T07:18:00.631Z,59.79
2017-07-03T07:19:00.972Z,59.98
2017-07-03T07:20:01.000Z,59.89
2017-07-03T07:21:00.717Z,60.08
2017-07-03T07:22:00.743Z,59.59
2017-07-03T07:23:01.074Z,59.5
2017-07-03T07:24:01.115Z,59.4
2017-07-03T07:25:01.145Z,59.59
2017-07-03T07:26:01.165Z,59.59
2017-07-03T07:27:00.890Z,59.5
2017-07-03T07:28:00.908Z,59.59
2017-07-03T07:29:01.255Z,59.21
2017-07-03T07:30:01.277Z,59.21
2017-07-03T07:31:01.313Z,59.31
2017-07-03T07:32:01.338Z,59.5
2017-07-03T07:33:01.366Z,59.69
2017-07-03T07:34:01.385Z,59.69
2017-07-03T07:35:01.423Z,59.31
2017-07-03T07:36:01.448Z,59.5
2017-07-03T07:37:01.482Z,59.21
2017-07-03T07:38:01.505Z,59.21
2017-07-03T07:39:01.531Z,59.5
2017-07-03T07:40:02.110Z,59.4
2017-07-03T07:41:01.274Z,59.21
2017-07-03T07:42:01.609Z,59.69
2017-07-03T07:43:01.645Z,59.31
2017-07-03T07:44:01.667Z,59.59
2017-07-03T07:45:01.387Z,59.59
2017-07-03T07:46:01.720Z,59.31
2017-07-03T07:47:01.444Z,59.31
2017-07-03T07:48:01.782Z,59.31
2017-07-03T07:49:01.496Z,59.4
2017-07-03T07:50:01.844Z,59.5
2017-07-03T07:51:01.557Z,59.4
2017-07-03T07:52:01.897Z,59.21
2017-07-03T07:53:01.606Z,59.11
2017-07-03T07:54:01.630Z,58.92
2017-07-03T07:55:01.981Z,59.31
2017-07-03T07:56:02.027Z,59.23
2017-07-03T07:57:01.719Z,59.21
2017-07-03T07:58:02.310Z,59.14
2017-07-03T07:59:02.112Z,58.95
2017-07-03T08:00:02.146Z,59.14
2017-07-03T08:01:01.842Z,59.01
2017-07-03T08:02:02.181Z,59.05
2017-07-03T08:03:02.516Z,58.75
2017-07-03T08:04:01.915Z,58.75
2017-07-03T08:05:01.952Z,59.05
2017-07-03T08:06:01.980Z,58.95
2017-07-03T08:07:02.328Z,58.95
2017-07-03T08:08:02.590Z,59.05
2017-07-03T08:09:02.358Z,59.23
2017-07-03T08:10:02.114Z,59.14
2017-07-03T08:11:02.424Z,59.05
2017-07-03T08:12:02.165Z,59.23
2017-07-03T08:13:02.738Z,59.05
2017-07-03T08:14:02.522Z,58.75
2017-07-03T08:15:02.542Z,59.05
2017-07-03T08:16:02.565Z,58.85
2017-07-03T08:17:02.286Z,58.85
2017-07-03T08:18:02.885Z,58.85
2017-07-03T08:19:02.342Z,59.14
2017-07-03T08:20:02.684Z,58.47
2017-07-03T08:21:02.705Z,58.47
2017-07-03T08:22:02.738Z,58.65
2017-07-03T08:23:03.066Z,58.47
2017-07-03T08:24:02.794Z,58.65
2017-07-03T08:25:02.823Z,58.65
2017-07-03T08:26:02.855Z,58.56
2017-07-03T08:27:02.922Z,58.47
2017-07-03T08:28:03.206Z,58.75
2017-07-03T08:29:02.940Z,58.65
2017-07-03T08:30:02.963Z,58.27
2017-07-03T08:31:02.992Z,58.17
2017-07-03T08:32:03.022Z,57.88
2017-07-03T08:33:03.297Z,58.2
2017-07-03T08:34:03.083Z,58.3
2017-07-03T08:35:03.097Z,58.11
2017-07-03T08:36:03.136Z,58.2
2017-07-03T08:37:03.165Z,57.69
2017-07-03T08:38:03.482Z,57.53
2017-07-03T08:39:03.222Z,58.2
2017-07-03T08:40:03.247Z,57.98
2017-07-03T08:41:02.963Z,58.3
2017-07-03T08:42:03.309Z,57.53
2017-07-03T08:43:03.336Z,57.62
2017-07-03T08:44:03.362Z,57.98
2017-07-03T08:45:03.383Z,57.81
2017-07-03T08:46:03.416Z,57.79
2017-07-03T08:47:03.441Z,57.71
2017-07-03T08:48:03.461Z,57.81
2017-07-03T08:49:03.185Z,57.71
2017-07-03T08:50:03.215Z,57.91
2017-07-03T08:51:03.560Z,58.2
2017-07-03T08:52:03.581Z,58.01
2017-07-03T08:53:03.618Z,57.91
2017-07-03T08:54:03.638Z,58.11
2017-07-03T08:55:03.682Z,58.17
2017-07-03T08:56:03.697Z,58.2
2017-07-03T08:57:03.724Z,57.79
2017-07-03T08:58:03.761Z,58.2
2017-07-03T08:59:03.782Z,57.71
2017-07-03T09:00:03.507Z,57.98
2017-07-03T09:01:03.848Z,57.91
2017-07-03T09:02:03.556Z,57.69
2017-07-03T09:03:03.903Z,57.98
2017-07-03T09:04:03.935Z,58.2
2017-07-03T09:05:03.957Z,57.71
2017-07-03T09:06:03.976Z,58.01
2017-07-03T09:07:04.009Z,57.23
2017-07-03T09:08:04.045Z,57.33
2017-07-03T09:09:04.070Z,57.91
2017-07-03T09:10:04.096Z,57.71
2017-07-03T09:11:04.128Z,57.43
2017-07-03T09:12:04.156Z,57.23
2017-07-03T09:13:03.874Z,57.33
2017-07-03T09:14:04.219Z,57.23
2017-07-03T09:15:03.932Z,57.23
2017-07-03T09:16:03.958Z,57.62
2017-07-03T09:17:04.296Z,57.33
2017-07-03T09:18:04.325Z,57.23
2017-07-03T09:19:04.354Z,56.94
2017-07-03T09:20:04.063Z,57.04
2017-07-03T09:21:04.106Z,57.23
2017-07-03T09:22:04.441Z,57.33
2017-07-03T09:23:04.489Z,57.14
2017-07-03T09:24:04.514Z,57.23
2017-07-03T09:25:04.538Z,57.23
2017-07-03T09:26:04.256Z,57.26
2017-07-03T09:27:04.273Z,57.23
2017-07-03T09:28:04.608Z,57.45
2017-07-03T09:29:04.325Z,57.53
2017-07-03T09:30:04.376Z,57.45
2017-07-03T09:31:04.379Z,57.45
2017-07-03T09:32:04.720Z,57.07
2017-07-03T09:33:04.750Z,57.26
2017-07-03T09:34:04.773Z,56.59
2017-07-03T09:35:04.804Z,56.65
2017-07-03T09:36:04.827Z,56.59
2017-07-03T09:37:04.861Z,56.59
2017-07-03T09:38:04.886Z,56.59
2017-07-03T09:39:04.923Z,56.16
2017-07-03T09:40:04.956Z,56.85
2017-07-03T09:41:04.975Z,56.29
2017-07-03T09:42:05.009Z,56
2017-07-03T09:43:04.728Z,56
2017-07-03T09:44:05.362Z,56.1
2017-07-03T09:45:05.095Z,56.29
2017-07-03T09:46:05.119Z,56.77
2017-07-03T09:47:05.151Z,56.1
2017-07-03T09:48:04.869Z,56.49
2017-07-03T09:49:05.199Z,56.29
2017-07-03T09:50:05.231Z,56
2017-07-03T09:51:05.260Z,56.49
2017-07-03T09:52:05.292Z,55.52
2017-07-03T09:53:05.324Z,55.9
2017-07-03T09:54:05.601Z,56
2017-07-03T09:55:05.067Z,55.71
2017-07-03T09:56:05.408Z,55.9
2017-07-03T09:57:05.436Z,55.52
2017-07-03T09:58:05.465Z,56
2017-07-03T09:59:05.477Z,56
2017-07-03T10:00:05.215Z,56.1
2017-07-03T10:01:05.555Z,56
2017-07-03T10:02:05.273Z,55.52
2017-07-03T10:03:05.605Z,55.52
2017-07-03T10:04:05.936Z,56
2017-07-03T10:05:05.366Z,56.1
2017-07-03T10:06:05.695Z,56
2017-07-03T10:07:05.721Z,56.49
2017-07-03T10:08:05.816Z,55.9
2017-07-03T10:09:06.029Z,55.9
2017-07-03T10:10:05.495Z,55.74
2017-07-03T10:11:05.847Z,55.44
2017-07-03T10:12:05.876Z,55.42
2017-07-03T10:13:05.581Z,55.26
2017-07-03T10:14:06.173Z,54.84
2017-07-03T10:15:05.962Z,55.06
2017-07-03T10:16:05.976Z,55.44
2017-07-03T10:17:05.692Z,55.54
2017-07-03T10:18:06.041Z,54.67
2017-07-03T10:19:06.373Z,55.16
2017-07-03T10:20:06.095Z,54.86
2017-07-03T10:21:06.124Z,54.58
2017-07-03T10:22:06.160Z,54.67
2017-07-03T10:23:06.185Z,54.74
2017-07-03T10:24:06.217Z,54.77
2017-07-03T10:25:06.245Z,54.48
2017-07-03T10:26:06.273Z,54.67
2017-07-03T10:27:06.295Z,54.58
2017-07-03T10:28:06.321Z,54.58
2017-07-03T10:29:06.356Z,54.19
2017-07-03T10:30:06.078Z,54.86
2017-07-03T10:31:06.104Z,54.19
2017-07-03T10:32:06.443Z,54.58
2017-07-03T10:33:06.170Z,54.48
2017-07-03T10:34:06.496Z,54.48
2017-07-03T10:35:06.537Z,53.61
2017-07-03T10:36:06.554Z,53.02
2017-07-03T10:37:06.585Z,53.31
2017-07-03T10:38:06.609Z,53.61
2017-07-03T10:39:06.329Z,53.41
2017-07-03T10:40:06.670Z,53.41
2017-07-03T10:41:06.704Z,53.31
2017-07-03T10:42:06.735Z,53.61
2017-07-03T10:43:06.761Z,52.93
2017-07-03T10:44:06.794Z,53.61
2017-07-03T10:45:06.819Z,53.61
2017-07-03T10:46:06.842Z,53.31
2017-07-03T10:47:06.877Z,52.93
2017-07-03T10:48:06.904Z,52.93
2017-07-03T10:49:06.938Z,52.95
2017-07-03T10:50:06.969Z,52.25
2017-07-03T10:51:06.999Z,52.56
2017-07-03T10:52:06.715Z,52.37
2017-07-03T10:53:06.739Z,52.47
2017-07-03T10:54:07.094Z,52.08
2017-07-03T10:55:07.110Z,52.28
2017-07-03T10:56:06.832Z,51.98
2017-07-03T10:57:06.856Z,51.89
2017-07-03T10:58:06.884Z,51.89
2017-07-03T10:59:07.222Z,51.98
2017-07-03T11:00:07.246Z,51.79
2017-07-03T11:01:07.279Z,51.5
2017-07-03T11:02:07.315Z,51.79
2017-07-03T11:03:07.331Z,51.31
2017-07-03T11:04:07.373Z,51.21
2017-07-03T11:05:07.405Z,51.31
2017-07-03T11:06:07.431Z,50.92
2017-07-03T11:07:07.455Z,50.43
2017-07-03T11:08:07.487Z,50.53
2017-07-03T11:09:07.520Z,50.04
2017-07-03T11:10:07.545Z,50.14
2017-07-03T11:11:07.583Z,50.34
2017-07-03T11:12:07.599Z,50.14
2017-07-03T11:13:07.324Z,50.43
2017-07-03T11:14:07.661Z,50.62
2017-07-03T11:15:07.691Z,50.24
2017-07-03T11:16:07.726Z,50.24
2017-07-03T11:17:07.755Z,50.34
2017-07-03T11:18:07.781Z,49.75
2017-07-03T11:19:07.808Z,49.95
2017-07-03T11:20:07.829Z,49.85
2017-07-03T11:21:07.873Z,49.85
2017-07-03T11:22:07.904Z,49.75
2017-07-03T11:23:07.927Z,49.37
2017-07-03T11:24:07.961Z,49.27
2017-07-03T11:25:07.985Z,49.97
2017-07-03T11:26:08.014Z,50.07
2017-07-03T11:27:08.042Z,50.07
2017-07-03T11:28:08.069Z,49.37
2017-07-03T11:29:08.097Z,49.49
2017-07-03T11:30:08.141Z,48.88
2017-07-03T11:31:08.148Z,48.88
2017-07-03T11:32:08.193Z,48.97
2017-07-03T11:33:08.219Z,49.29
2017-07-03T11:34:08.245Z,48.8
2017-07-03T11:35:08.282Z,48.78
2017-07-03T11:36:08.312Z,48.61
2017-07-03T11:37:08.340Z,48.61
2017-07-03T11:38:08.364Z,48.61
2017-07-03T11:39:08.409Z,48.61
2017-07-03T11:40:08.437Z,47.74
2017-07-03T11:41:08.146Z,48.03
2017-07-03T11:42:08.167Z,48.13
2017-07-03T11:43:08.196Z,47.83
2017-07-03T11:44:08.550Z,47.55
2017-07-03T11:45:08.578Z,47.25
2017-07-03T11:46:08.589Z,46.5
2017-07-03T11:47:08.635Z,47.08
2017-07-03T11:48:08.664Z,47.08
2017-07-03T11:49:08.697Z,46.41
2017-07-03T11:50:08.720Z,46.23
2017-07-03T11:51:08.750Z,45.65
2017-07-03T11:52:08.780Z,45.45
2017-07-03T11:53:08.815Z,45.65
2017-07-03T11:54:08.849Z,44.99
2017-07-03T11:55:08.873Z,44.99
2017-07-03T11:56:08.906Z,44.51
2017-07-03T11:57:08.923Z,44.82
2017-07-03T11:58:08.968Z,44.24
2017-07-03T11:59:08.996Z,43.36
2017-07-03T12:00:09.033Z,43.29
2017-07-03T12:01:09.067Z,43.19
2017-07-03T12:02:09.098Z,42.9
2017-07-03T12:03:09.124Z,42.53
2017-07-03T12:04:09.197Z,42.63
2017-07-03T12:05:08.869Z,42.72
2017-07-03T12:06:09.222Z,42.53
2017-07-03T12:07:08.936Z,41.96
2017-07-03T12:08:09.278Z,41.77
2017-07-03T12:09:09.309Z,41.96
2017-07-03T12:10:09.029Z,41.09
2017-07-03T12:11:09.373Z,41.11
2017-07-03T12:12:09.407Z,41.4
2017-07-03T12:13:09.128Z,41.3
2017-07-03T12:14:09.476Z,40.91
2017-07-03T12:15:09.505Z,40.23
2017-07-03T12:16:09.536Z,40.33
2017-07-03T12:17:09.569Z,40.16
2017-07-03T12:18:09.605Z,40.25
2017-07-03T12:19:09.632Z,40.45
2017-07-03T12:20:09.665Z,40.16
2017-07-03T12:21:09.389Z,39.29
2017-07-03T12:22:09.730Z,39.2
2017-07-03T12:23:09.759Z,39.39
2017-07-03T12:24:09.799Z,39
2017-07-03T12:25:09.826Z,39.31
2017-07-03T12:26:09.866Z,38.53
2017-07-03T12:27:09.897Z,38.43
2017-07-03T12:28:09.624Z,37.55
2017-07-03T12:29:09.964Z,37.77
2017-07-03T12:30:10.252Z,38.14
2017-07-03T12:31:10.017Z,37.48
2017-07-03T12:32:10.063Z,37.57
2017-07-03T12:33:10.089Z,37.57
2017-07-03T12:34:10.124Z,37.38
2017-07-03T12:35:10.413Z,37.21
2017-07-03T12:36:10.186Z,37.79
2017-07-03T12:37:10.227Z,36.82
2017-07-03T12:38:10.264Z,36.13
2017-07-03T12:39:10.300Z,36.23
2017-07-03T12:40:10.578Z,36.24
2017-07-03T12:41:10.357Z,35.46
2017-07-03T12:42:10.080Z,35.75
2017-07-03T12:43:10.432Z,35.46
2017-07-03T12:44:10.460Z,35.46
2017-07-03T12:45:10.794Z,35.17
2017-07-03T12:46:10.521Z,35.46
2017-07-03T12:47:10.563Z,35.28
2017-07-03T12:48:10.290Z,35.19
2017-07-03T12:49:10.684Z,35.87
2017-07-03T12:50:10.917Z,35.38
2017-07-03T12:51:10.703Z,35.27
2017-07-03T12:52:10.727Z,35.85
2017-07-03T12:53:10.755Z,35.75
2017-07-03T12:54:10.488Z,35.95
2017-07-03T12:55:10.767Z,36.34
2017-07-03T12:56:10.553Z,36.15
2017-07-03T12:57:10.903Z,36.05
2017-07-03T12:58:10.922Z,36.33
2017-07-03T12:59:10.969Z,36.04
2017-07-03T13:00:10.940Z,36.33